Laverock, Pennsylvania
Current Conditions -  °F | °C
As of 2:55 AM on Monday 24 Nov 2014 (Local Time) from KLOM Reporting Station
Overcast Overcast  
Wind Chill: 15°   Ceiling: 700
Heat Index: 15°   Visibility: 3mi
Dew Point: 15°   Wind: 8mph
Humidity: 100%   Direction: 120°ESE
Pressure: 29.72"   Gusts: 17mph
Location:  40.1012°N, 75.1722°W
Report Text: KLOM 240755Z AUTO 12007G15KT 3SM OVC007 15/15 A2972 RMK AO1 P0016
Loading
Personal Weather Stations






























Interactive Weather Map New forecast layout! Learn more

10-Day Weather Forecast

Advertisements
Track Severe Weather on mobile